Accueil
METAR-TAF:

METAR-TAF

Aéroports :

Base aérienne de Chièvres

Chièvres, Belgique

latitude: 50-34N, longitude: 003-50E, altitude: 60 m

Observation

Le bulletin a été fait il y a 26 minutes, à 18:25 UTC
Vent 3 kt de nord/nord-est
Température 19°C
Humidité 46%
Pression 1022 hPa
Visibilité 10 km ou plus

METAR: EBCV 081825Z AUTO 02003KT 9999 NCD 19/07 Q1022 BLU

Heure: 20:51 (18:51 UTC)

Prévision

Le bulletin a été fait il y a 3 heures et 6 minutes, à 15:45 UTC
Prévision valable du 08 à 19 UTC au 09 à 07 UTC
Vent 3 kt de direction variable
Visibilité 10 km ou plus
Nuages épars à une hauteur de 10000 ft
Probabilité 40% :
Temporairement
du 09 à 03 UTC au 09 à 07 UTC
Visibilité: 3000 m
Brouillard mince, brume

TAF: EBCV 081545Z 0819/0907 VRB03KT 9999 SCT100 PROB40 TEMPO 0903/0907 3000 MIFG BR BY EBWM

Observations et prévisions météorologiques de plus de 4000 aéroports (messages METAR et TAF).

Les stations disponibles sont représentées par des disques jaunes et rouges sur la carte.

Passer la souris dessus pour voir le nom de la station.

Cliquer dessus pour voir les observations et prévisions météorologiques.

Pour changer de carte: cliquez sur les boutons verts avec une croix noire pour zoomer, sur le bouton vert avec un tiret pour effectuer un zoom arrière, ou sur les flèches vertes pour les cartes adjacentes.


METAR-TAF: